• Join FlightAware (Why Join?)
  • Login
  • US Flag 
09:03AM EDT


 

Airport Tracker/Info


-or-


 

Live Flight TrackerFlight Track Log ✈ XOJ549 ✈ 08-May-2013 ✈ KVNY - KTEB

Flight Track Log - Related Links

Times and Time Zones

All times are in EDT time to prevent confusion due to time zone crossing. See the XOJ549 flight status page for this flight to view local times or setup timezone preferences in your user account.

Time Position Orientation Groundspeed Altitude Reporting Facility
EDT Latitude Longitude Course Direction KTS MPH feet Rate Location/Type
06:08PM 34.1772 -118.4867 106° East 163 188 41,000  Level Los Angeles Center
06:09PM 34.1628 -118.4256 106° East 225 259 5,800 -15,120 Descending Los Angeles Center
06:10PM 34.2247 -118.4272 359° North 234 269 9,800 3,660 Climbing Los Angeles Center
06:11PM 34.2961 -118.4325 357° North 263 303 13,400 3,420 Climbing Los Angeles Center
06:12PM 34.3706 -118.3875 27° Northeast 296 341 16,900 2,940 Climbing Los Angeles Center
06:14PM 34.4486 -118.3425 25° Northeast 310 357 20,100 2,880 Climbing Los Angeles Center
06:15PM 34.5228 -118.2397 49° Northeast 343 395 23,600 3,120 Climbing Los Angeles Center
06:16PM 34.5889 -118.1333 53° Northeast 350 403 26,600 2,520 Climbing Los Angeles Center
06:17PM 34.6350 -118.0247 63° Northeast 369 425 28,900 1,980 Climbing Los Angeles Center
06:18PM 34.6525 -117.8811 82° East 394 453 30,800 1,740 Climbing Los Angeles Center
06:19PM 34.6725 -117.7294 81° East 413 475 32,500 1,500 Climbing Los Angeles Center
06:20PM 34.7089 -117.5908 72° East 433 498 34,000 1,260 Climbing Los Angeles Center
06:21PM 34.7442 -117.4486 73° East 442 509 35,200 1,020 Climbing Los Angeles Center
06:22PM 34.7831 -117.3025 72° East 456 525 36,200 960 Climbing Los Angeles Center
06:23PM 34.8200 -117.1497 74° East 472 543 37,200 1,020 Climbing Los Angeles Center
06:24PM 34.8672 -116.9642 73° East 481 554 38,400 1,020 Climbing Los Angeles Center
06:25PM 34.9050 -116.8092 73° East 481 554 39,400 780 Climbing Los Angeles Center
06:26PM 34.9561 -116.6611 67° East 479 551 40,100 480 Climbing Los Angeles Center
06:27PM 35.0439 -116.5397 49° Northeast 479 551 40,500 420 Climbing Los Angeles Center
06:28PM 35.1356 -116.4197 47° Northeast 484 557 41,000 240 Climbing Los Angeles Center
06:29PM 35.2486 -116.2725 47° Northeast 498 573 41,000  Level Los Angeles Center
06:30PM 35.3397 -116.1486 48° Northeast 493 567 41,000  Level Los Angeles Center
06:31PM 35.4311 -116.0267 47° Northeast 488 562 41,000  Level Los Angeles Center
06:32PM 35.5253 -115.9056 46° Northeast 490 564 41,000  Level Los Angeles Center
06:33PM 35.6314 -115.7658 47° Northeast 485 558 41,000  Level Los Angeles Center
06:34PM 35.7228 -115.6422 48° Northeast 488 562 41,000  Level Los Angeles Center
06:35PM 35.8139 -115.5208 47° Northeast 485 558 41,000  Level Los Angeles Center
06:36PM 35.9028 -115.3975 48° Northeast 483 556 41,000  Level Los Angeles Center
06:37PM 36.0119 -115.2519 47° Northeast 485 558 41,000  Level Los Angeles Center
06:38PM 36.1019 -115.1294 48° Northeast 484 557 41,000  Level Los Angeles Center
06:39PM 36.1969 -115.0106 45° Northeast 489 563 41,000  Level Los Angeles Center
06:40PM 36.2911 -114.8917 45° Northeast 488 562 41,000  Level Los Angeles Center
06:42PM 36.3844 -114.7731 46° Northeast 485 558 41,000  Level Los Angeles Center
06:43PM 36.4950 -114.6278 47° Northeast 485 558 41,000  Level Los Angeles Center
06:44PM 36.5881 -114.5072 46° Northeast 486 559 41,000  Level Los Angeles Center
06:45PM 36.6806 -114.3850 47° Northeast 486 559 41,000  Level Los Angeles Center
06:46PM 36.7703 -114.2594 48° Northeast 487 560 41,000  Level Los Angeles Center
06:47PM 36.8397 -114.1139 59° Northeast 490 564 41,000  Level Los Angeles Center
06:48PM 36.9097 -113.9678 59° Northeast 492 566 41,000  Level Los Angeles Center
06:49PM 36.9936 -113.7944 59° Northeast 486 559 41,000  Level Los Angeles Center
06:50PM 37.0625 -113.6500 59° Northeast 486 559 41,000  Level Los Angeles Center
06:51PM 37.1306 -113.5056 59° Northeast 485 558 41,000  Level Los Angeles Center
06:52PM 37.1986 -113.3625 59° Northeast 481 554 41,000  Level Los Angeles Center
06:52PM 37.2244 -113.3056 60° Northeast 480 552 41,000  Level Salt Lake Center
06:53PM 37.2917 -113.1619 59° Northeast 479 551 41,000  Level Salt Lake Center
06:54PM 37.3581 -113.0178 60° Northeast 480 552 41,000  Level Salt Lake Center
06:55PM 37.4250 -112.8747 59° Northeast 481 554 41,000  Level Salt Lake Center
06:56PM 37.4911 -112.7331 60° Northeast 483 556 41,000  Level Salt Lake Center
06:57PM 37.5717 -112.5628 59° Northeast 482 555 41,000  Level Salt Lake Center
06:58PM 37.6381 -112.4183 60° Northeast 481 554 41,000  Level Salt Lake Center
06:59PM 37.7067 -112.2756 59° Northeast 480 552 41,000  Level Salt Lake Center
07:00PM 37.7844 -112.1414 54° Northeast 477 549 41,000  Level Salt Lake Center
07:01PM 37.8631 -112.0067 54° Northeast 477 549 41,000  Level Salt Lake Center
07:02PM 37.9411 -111.8708 54° Northeast 477 549 41,000  Level Salt Lake Center
07:03PM 38.0189 -111.7353 54° Northeast 477 549 41,000 60 Level Salt Lake Center
07:04PM 38.1119 -111.5717 54° Northeast 478 550 41,200 300 Climbing Salt Lake Center
07:05PM 38.1903 -111.4353 54° Northeast 479 551 41,700 480 Climbing Salt Lake Center
07:07PM 38.2658 -111.2978 55° Northeast 476 548 42,200 480 Climbing Salt Lake Center
07:08PM 38.3428 -111.1636 54° Northeast 472 543 42,700 480 Climbing Salt Lake Center
07:09PM 38.4186 -111.0275 55° Northeast 471 542 43,200 480 Climbing Salt Lake Center
07:10PM 38.4956 -110.8897 54° Northeast 466 536 43,700 480 Climbing Salt Lake Center
07:11PM 38.5783 -110.7397 55° Northeast 462 532 44,300 480 Climbing Salt Lake Center
07:12PM 38.6481 -110.6136 55° Northeast 455 524 44,700 300 Climbing Salt Lake Center
07:13PM 38.7175 -110.4878 55° Northeast 453 521 45,000 120 Climbing Salt Lake Center
07:14PM 38.7992 -110.3397 55° Northeast 456 525 45,000  Level Salt Lake Center
07:14PM 38.8211 -110.2964 57° Northeast 457 526 45,000  Level Denver Center
07:15PM 38.8903 -110.1664 56° Northeast 459 528 45,000  Level Denver Center
07:16PM 38.9508 -110.0611 53° Northeast 460 529 45,000  Level Salt Lake Center
07:17PM 39.0203 -109.9306 56° Northeast 462 532 45,000  Level Salt Lake Center
07:18PM 39.1022 -109.7783 55° Northeast 463 533 45,000  Level Salt Lake Center
07:18PM 39.1131 -109.7536 61° Northeast 467 537 45,000  Level Denver Center
07:19PM 39.1722 -109.6475 54° Northeast 463 533 45,000  Level Salt Lake Center
07:20PM 39.2419 -109.5156 56° Northeast 465 535 45,000  Level Salt Lake Center
07:21PM 39.3244 -109.3622 55° Northeast 465 535 45,000  Level Salt Lake Center
07:21PM 39.3461 -109.3158 59° Northeast 466 536 45,000  Level Denver Center
07:22PM 39.4394 -109.1392 56° Northeast 466 536 45,000  Level Denver Center
07:23PM 39.4747 -109.0753 54° Northeast 467 537 45,000  Level Salt Lake Center
07:23PM 39.5092 -109.0075 57° Northeast 464 534 45,000  Level Denver Center
07:24PM 39.5792 -108.8747 56° Northeast 465 535 45,000  Level Denver Center
07:26PM 39.6600 -108.7197 56° Northeast 471 542 45,000  Level Denver Center
07:27PM 39.7372 -108.5717 56° Northeast 470 541 45,000  Level Denver Center
07:28PM 39.8306 -108.3922 56° Northeast 470 541 45,000  Level Denver Center
07:29PM 39.9022 -108.2547 56° Northeast 480 552 45,000  Level Denver Center
07:30PM 39.9683 -108.1200 57° Northeast 463 533 45,000  Level Denver Center
07:31PM 40.0494 -107.9611 56° Northeast 471 542 45,000  Level Denver Center
07:32PM 40.0939 -107.8075 69° East 483 556 45,000  Level Denver Center
07:33PM 40.1367 -107.6233 73° East 473 544 45,000  Level Denver Center
07:34PM 40.1731 -107.4664 73° East 472 543 45,000  Level Denver Center
07:35PM 40.2164 -107.2806 73° East 477 549 45,000  Level Denver Center
07:36PM 40.2647 -107.0692 73° East 476 548 45,000  Level Denver Center
07:37PM 40.3058 -106.8839 74° East 475 547 45,000  Level Denver Center
07:39PM 40.3403 -106.7231 74° East 476 548 45,000  Level Denver Center
07:40PM 40.3786 -106.5583 73° East 473 544 45,000  Level Denver Center
07:41PM 40.4289 -106.3267 74° East 478 550 45,000  Level Denver Center
07:42PM 40.4650 -106.1561 74° East 472 543 45,000  Level Denver Center
07:43PM 40.5003 -105.9869 75° East 476 548 45,000  Level Denver Center
07:44PM 40.5289 -105.8542 74° East 473 544 45,000  Level Denver Center
07:45PM 40.5722 -105.6553 74° East 471 542 45,000  Level Denver Center
07:46PM 40.6072 -105.4864 75° East 476 548 45,000  Level Denver Center
07:47PM 40.6497 -105.2731 75° East 476 548 45,000  Level Denver Center
07:48PM 40.6978 -105.0436 74° East 483 556 45,000  Level Denver Center
07:49PM 40.7322 -104.8739 75° East 480 552 45,000  Level Denver Center
07:51PM 40.7642 -104.7092 76° East 473 544 45,000  Level Denver Center
07:52PM 40.8031 -104.5186 75° East 482 555 45,000  Level Denver Center
07:53PM 40.8344 -104.3583 75° East 474 545 45,000  Level Denver Center
07:54PM 40.8711 -104.1683 76° East 478 550 45,000  Level Denver Center
07:55PM 40.9028 -104.0058 75° East 476 548 45,000  Level Denver Center
07:56PM 40.9397 -103.8169 75° East 477 549 45,000  Level Denver Center
07:57PM 40.9706 -103.6564 76° East 474 545 45,000  Level Denver Center
07:58PM 41.0069 -103.4689 76° East 472 543 45,000  Level Denver Center
07:59PM 41.0369 -103.3078 76° East 471 542 45,000  Level Denver Center
08:00PM 41.0656 -103.1472 77° East 470 541 45,000  Level Denver Center
08:01PM 41.0986 -102.9647 76° East 476 548 45,000  Level Denver Center
08:02PM 41.1131 -102.7694 84° East 477 549 45,000  Level Denver Center
08:03PM 41.1250 -102.6033 84° East 475 547 45,000  Level Denver Center
08:04PM 41.1406 -102.4072 84° East 478 550 45,000  Level Denver Center
08:05PM 41.1536 -102.2400 84° East 477 549 45,000  Level Denver Center
08:06PM 41.1681 -102.0456 84° East 474 545 45,000  Level Denver Center
08:07PM 41.1808 -101.8775 84° East 478 550 45,000  Level Denver Center
08:08PM 41.1925 -101.7100 85° East 478 550 45,000  Level Denver Center
08:09PM 41.2069 -101.5131 84° East 478 550 45,000  Level Denver Center
08:10PM 41.2153 -101.3717 85° East 480 552 45,000  Level Denver Center
08:11PM 41.2300 -101.1472 85° East 477 549 45,000  Level Denver Center
08:12PM 41.2411 -100.9769 85° East 480 552 45,000  Level Denver Center
08:13PM 41.2539 -100.7781 85° East 480 552 45,000  Level Denver Center
08:14PM 41.2639 -100.6078 85° East 480 552 45,000  Level Denver Center
08:16PM 41.2778 -100.3822 85° East 477 549 45,000  Level Denver Center
08:17PM 41.2875 -100.2139 86° East 476 548 45,000  Level Denver Center
08:18PM 41.2986 -100.0158 86° East 478 550 45,000  Level Denver Center
08:19PM 41.3075 -99.8469 86° East 478 550 45,000  Level Denver Center
08:20PM 41.3147 -99.7039 86° East 482 555 45,000  Level Denver Center
08:21PM 41.3264 -99.4747 86° East 486 559 45,000  Level Denver Center
08:22PM 41.3372 -99.2558 86° East 484 557 45,000  Level Denver Center
08:23PM 41.3458 -99.0769 86° East 481 554 45,000  Level Denver Center
08:24PM 41.3536 -98.8961 87° East 482 555 45,000  Level Denver Center
08:25PM 41.3622 -98.7136 86° East 484 557 45,000  Level Denver Center
08:26PM 41.3697 -98.5328 87° East 484 557 45,000  Level Denver Center
08:27PM 41.3775 -98.3542 87° East 483 556 45,000  Level Minneapolis Center
08:28PM 41.4056 -98.1794 78° East 479 551 45,000  Level Minneapolis Center
08:29PM 41.4400 -97.9792 77° East 481 554 45,000  Level Minneapolis Center
08:30PM 41.4694 -97.8056 77° East 481 554 45,000  Level Minneapolis Center
08:31PM 41.4967 -97.6325 78° East 478 550 45,000  Level Minneapolis Center
08:32PM 41.5256 -97.4567 78° East 482 555 45,000  Level Minneapolis Center
08:33PM 41.5533 -97.2831 78° East 480 552 45,000  Level Minneapolis Center
08:34PM 41.5867 -97.0744 78° East 478 550 45,000  Level Minneapolis Center
08:35PM 41.6139 -96.8986 78° East 480 552 45,000  Level Minneapolis Center
08:36PM 41.6419 -96.7222 78° East 483 556 45,000  Level Minneapolis Center
08:37PM 41.6681 -96.5458 79° East 482 555 45,000  Level Minneapolis Center
08:38PM 41.6956 -96.3678 78° East 483 556 45,000  Level Minneapolis Center
08:39PM 41.7222 -96.1900 79° East 483 556 45,000  Level Minneapolis Center
08:41PM 41.7486 -96.0119 79° East 483 556 45,000  Level Minneapolis Center
08:42PM 41.7747 -95.8328 79° East 486 559 45,000  Level Minneapolis Center
08:43PM 41.8056 -95.6189 79° East 485 558 45,000  Level Minneapolis Center
08:44PM 41.8311 -95.4422 79° East 482 555 45,000  Level Minneapolis Center
08:45PM 41.8567 -95.2642 79° East 484 557 45,000  Level Minneapolis Center
08:46PM 41.8808 -95.0858 80° East 485 558 45,000  Level Minneapolis Center
08:47PM 41.9053 -94.9075 80° East 486 559 45,000  Level Minneapolis Center
08:48PM 41.9294 -94.7297 80° East 485 558 45,000  Level Minneapolis Center
08:49PM 41.9528 -94.5528 80° East 480 552 45,000  Level Minneapolis Center
08:50PM 41.9819 -94.3406 79° East 481 554 45,000  Level Minneapolis Center
08:51PM 42.0047 -94.1619 80° East 484 557 45,000  Level Minneapolis Center
08:52PM 42.0289 -93.9844 80° East 484 557 45,000  Level Minneapolis Center
08:53PM 42.0514 -93.8075 80° East 482 555 45,000  Level Minneapolis Center
08:54PM 42.0733 -93.6289 81° East 485 558 45,000  Level Minneapolis Center
08:55PM 42.0964 -93.4531 80° East 484 557 45,000  Level Minneapolis Center
08:56PM 42.1239 -93.2422 80° East 484 557 45,000  Level Minneapolis Center
08:57PM 42.1425 -93.0650 82° East 484 557 45,000  Level Minneapolis Center
08:58PM 42.1644 -92.8875 80° East 485 558 45,000  Level Minneapolis Center
08:59PM 42.1847 -92.7086 81° East 487 560 45,000  Level Minneapolis Center
09:00PM 42.2069 -92.5336 80° East 484 557 45,000  Level Minneapolis Center
09:01PM 42.2342 -92.2839 82° East 486 559 45,000  Level Minneapolis Center
09:02PM 42.2422 -92.1044 86° East 486 559 45,000  Level Minneapolis Center
09:03PM 42.2422 -92.0306 90° East 487 560 45,000  Level Chicago Center
09:04PM 42.2458 -91.8514 88° East 487 560 45,000  Level Chicago Center
09:05PM 42.2478 -91.6739 89° East 484 557 45,000  Level Chicago Center
09:06PM 42.2503 -91.4597 89° East 485 558 45,000  Level Chicago Center
09:07PM 42.2517 -91.2811 89° East 484 557 45,000  Level Chicago Center
09:08PM 42.2536 -91.1050 89° East 480 552 45,000  Level Chicago Center
09:09PM 42.2536 -90.9272 90° East 479 551 45,000  Level Chicago Center
09:10PM 42.2539 -90.7158 90° East 478 550 45,000  Level Chicago Center
09:11PM 42.2544 -90.5372 90° East 480 552 45,000  Level Chicago Center
09:12PM 42.2550 -90.3603 90° East 479 551 45,000  Level Chicago Center
09:13PM 42.2528 -90.1822 91° East 479 551 45,000  Level Chicago Center
09:14PM 42.2539 -89.9692 90° East 480 552 45,000  Level Chicago Center
09:15PM 42.2531 -89.7853 90° East 481 554 45,000  Level Chicago Center
09:16PM 42.2522 -89.6047 90° East 482 555 45,000  Level Chicago Center
09:17PM 42.2500 -89.4247 91° East 482 555 45,000  Level Chicago Center
09:18PM 42.2492 -89.2439 90° East 485 558 45,000  Level Chicago Center
09:19PM 42.2469 -89.0625 91° East 484 557 45,000  Level Chicago Center
09:20PM 42.2442 -88.8506 91° East 487 560 45,000  Level Chicago Center
09:21PM 42.2431 -88.6958 91° East 488 562 45,000  Level Chicago Center
09:22PM 42.2397 -88.4792 91° East 485 558 45,000  Level Chicago Center
09:23PM 42.2372 -88.2947 91° East 490 564 45,000  Level Chicago Center
09:25PM 42.2331 -88.1144 92° East 484 557 45,000  Level Chicago Center
09:26PM 42.2303 -87.9328 91° East 486 559 45,000  Level Chicago Center
09:27PM 42.2253 -87.7539 92° East 481 554 45,000  Level Chicago Center
09:28PM 42.2206 -87.5733 92° East 481 554 45,000  Level Chicago Center
09:29PM 42.2158 -87.3572 92° East 481 554 45,000  Level Chicago Center
09:30PM 42.2108 -87.1772 92° East 482 555 45,000  Level Chicago Center
09:31PM 42.2061 -86.9967 92° East 483 556 45,000  Level Chicago Center
09:32PM 42.2000 -86.8161 93° East 484 557 45,000  Level Chicago Center
09:33PM 42.1972 -86.6472 91° East 485 558 45,000  Level Chicago Center
09:34PM 42.1983 -86.4308 90° East 482 555 45,000  Level Chicago Center
09:35PM 42.1969 -86.2500 91° East 483 556 45,000  Level Chicago Center
09:36PM 42.1967 -86.0708 90° East 479 551 45,000  Level Chicago Center
09:37PM 42.1953 -85.9064 91° East 478 550 45,000  Level Chicago Center
09:38PM 42.1942 -85.6919 90° East 480 552 45,000  Level Chicago Center
09:39PM 42.1911 -85.5133 91° East 481 554 45,000  Level Chicago Center
09:40PM 42.1900 -85.3344 90° East 481 554 45,000  Level Chicago Center
09:40PM 42.1931 -85.2361 88° East 476 548 45,000  Level Cleveland Center
09:41PM 42.1919 -85.0511 90° East 481 554 45,000  Level Cleveland Center
09:42PM 42.1886 -84.8686 91° East 481 554 45,000  Level Cleveland Center
09:43PM 42.1847 -84.6889 92° East 475 547 45,000  Level Cleveland Center
09:44PM 42.1778 -84.5286 93° East 482 555 45,000  Level Cleveland Center
09:45PM 42.1733 -84.3461 92° East 482 555 45,000  Level Cleveland Center
09:46PM 42.1708 -84.1639 91° East 482 555 45,000  Level Cleveland Center
09:47PM 42.1658 -83.9842 92° East 482 555 45,000  Level Cleveland Center
09:48PM 42.1628 -83.8047 91° East 482 555 45,000  Level Cleveland Center
09:49PM 42.1572 -83.6225 92° East 482 555 45,000  Level Cleveland Center
09:50PM 42.1536 -83.4431 91° East 482 555 45,000  Level Cleveland Center
09:51PM 42.1497 -83.2578 92° East 482 555 45,000  Level Cleveland Center
09:52PM 42.1417 -83.0558 93° East 488 562 45,000  Level Cleveland Center
09:53PM 42.1350 -82.8792 93° East 478 550 45,000  Level Cleveland Center
09:54PM 42.1281 -82.6997 93° East 478 550 45,000  Level Cleveland Center
09:55PM 42.1250 -82.5233 91° East 478 550 45,000  Level Cleveland Center
09:56PM 42.1194 -82.3439 92° East 478 550 45,000  Level Cleveland Center
09:57PM 42.1117 -82.1644 93° East 478 550 45,000  Level Cleveland Center
09:58PM 42.1056 -81.9908 93° East 478 550 45,000  Level Cleveland Center
09:59PM 42.0972 -81.8117 94° East 478 550 45,000  Level Cleveland Center
10:00PM 42.0906 -81.6353 93° East 472 543 45,000  Level Cleveland Center
10:01PM 42.0836 -81.4783 93° East 472 543 45,000  Level Cleveland Center
10:02PM 42.0744 -81.3019 94° East 472 543 45,000  Level Cleveland Center
10:03PM 42.0672 -81.1231 93° East 477 549 45,000  Level Cleveland Center
10:04PM 42.0594 -80.9494 93° East 477 549 45,000  Level Cleveland Center
10:05PM 42.0472 -80.7706 95° East 477 549 45,000  Level Cleveland Center
10:06PM 42.0122 -80.5803 104° East 477 549 45,000 -300 Level Cleveland Center
10:07PM 41.9786 -80.4072 105° East 477 549 44,400 -840 Descending Cleveland Center
10:08PM 41.9489 -80.2342 103° East 477 549 43,400 -1,020 Descending Cleveland Center
10:09PM 41.9297 -80.0583 98° East 467 537 42,400 -1,020 Descending Cleveland Center
10:10PM 41.9100 -79.8856 99° East 467 537 41,400 -1,020 Descending Cleveland Center
10:11PM 41.8900 -79.7156 99° East 467 537 40,400 -1,020 Descending Cleveland Center
10:12PM 41.8742 -79.5542 97° East 451 519 39,400 -960 Descending Cleveland Center
10:13PM 41.8536 -79.3844 99° East 451 519 38,500 -720 Descending Cleveland Center
10:14PM 41.8417 -79.2314 96° East 451 519 38,000 -480 Descending Cleveland Center
10:15PM 41.8731 -79.0717 75° East 431 496 37,600 -900 Descending Cleveland Center
10:16PM 41.9142 -78.8978 72° East 431 496 36,300 -1,200 Descending Cleveland Center
10:17PM 41.9536 -78.7431 71° East 437 503 35,300 -1,080 Descending Cleveland Center
10:18PM 41.9928 -78.5856 71° East 442 509 34,200 -1,140 Descending Cleveland Center
10:19PM 42.0294 -78.4250 73° East 442 509 33,100 -600 Descending Cleveland Center
10:20PM 42.0661 -78.2783 71° East 430 495 33,000 -60 Descending Cleveland Center
10:21PM 42.1008 -78.1456 71° East 420 483 33,000 -780 Level Cleveland Center
10:22PM 42.1542 -78.0008 64° Northeast 414 476 31,500 -1,620 Descending Cleveland Center
10:23PM 42.2072 -77.8639 62° Northeast 414 476 29,800 -1,740 Descending Cleveland Center
10:24PM 42.2411 -77.7139 73° East 414 476 28,100 -1,440 Descending Cleveland Center
10:25PM 42.2706 -77.5608 75° East 414 476 27,000 -600 Descending Cleveland Center
10:26PM 42.3019 -77.4164 74° East 408 470 27,000  Level Cleveland Center
10:29PM 42.3786 -77.0278 75° East 408 470 27,000  Level Boston Center
10:30PM 42.4075 -76.8781 75° East 413 475 27,000  Level Boston Center
10:31PM 42.4358 -76.7336 75° East 413 475 27,000  Level Boston Center
10:32PM 42.4644 -76.5864 75° East 413 475 27,000  Level Boston Center
10:33PM 42.4925 -76.4389 75° East 413 475 27,000  Level Boston Center
10:34PM 42.5081 -76.2906 82° East 413 475 27,000  Level Boston Center
10:35PM 42.4522 -76.1519 119° Southeast 381 438 27,000  Level Boston Center
10:36PM 42.3897 -76.0217 123° Southeast 394 453 27,000 -180 Level Boston Center
10:37PM 42.3292 -75.8919 122° Southeast 407 468 26,700 -1,200 Descending Boston Center
10:38PM 42.2783 -75.7739 120° Southeast 412 474 24,700 -2,100 Descending Boston Center
10:39PM 42.2217 -75.6503 122° Southeast 412 474 22,600 -2,100 Descending Boston Center
10:40PM 42.1644 -75.5297 123° Southeast 395 455 20,600 -2,040 Descending Boston Center
10:41PM 42.1133 -75.4181 122° Southeast 373 429 18,600 -1,800 Descending Boston Center
10:42PM 42.0619 -75.3067 122° Southeast 367 422 17,000 -780 Descending Boston Center
10:43PM 42.0031 -75.1531 117° Southeast 366 421 17,000  Level Boston Center
10:44PM 41.9500 -75.0194 118° Southeast 371 427 17,000 -780 Level Boston Center
10:45PM 41.8958 -74.9253 128° Southeast 363 418 15,500 -1,800 Descending Boston Center
10:46PM 41.8250 -74.8250 133° Southeast 346 398 13,400 -1,800 Descending Boston Center
10:47PM 41.7744 -74.7561 135° Southeast 309 356 12,000 -1,500 Descending Boston Center
10:48PM 41.7136 -74.6706 134° Southeast 290 334 10,400 -1,500 Descending Boston Center
10:49PM 41.6667 -74.6106 136° Southeast 273 314 9,100 -1,200 Descending Boston Center
10:50PM 41.6011 -74.5583 149° Southeast 263 303 8,000 -600 Descending Boston Center
10:51PM 41.5383 -74.5700 188° South 241 277 8,000 -660 Level Boston Center
10:53PM 41.3833 -74.6000 188° South 244 281 6,000 -840 Descending New York TRACON
10:54PM 41.3167 -74.6333 201° Southwest 255 293 5,300 -1,020 Descending New York TRACON
10:55PM 41.2500 -74.6500 191° South 243 280 4,000 -660 Descending New York TRACON
10:57PM 41.1667 -74.6833 197° South 244 281 4,000 -180 Level New York TRACON
10:58PM 41.1167 -74.6500 153° Southeast 247 284 3,700 -540 Descending New York TRACON
10:59PM 41.0500 -74.6167 159° South 243 280 3,000 -360 Descending New York TRACON
11:00PM 40.9833 -74.5667 150° Southeast 254 292 3,000  Level New York TRACON
11:01PM 40.9167 -74.5167 150° Southeast 252 290 3,000  Level New York TRACON
11:02PM 40.8667 -74.4833 153° Southeast 240 276 3,000  Level New York TRACON
11:03PM 40.8000 -74.4333 150° Southeast 237 273 3,000  Level New York TRACON
11:04PM 40.7667 -74.3667 123° Southeast 255 293 3,000 -480 Level New York TRACON
11:04PM 40.7333 -74.3000 123° Southeast 235 270 2,100 -660 Descending New York TRACON
11:06PM 40.7500 -74.2167 75° East 220 253 1,700 -300 Descending New York TRACON
11:06PM 40.7833 -74.1667 49° Northeast 193 222 1,600 -360 Descending New York TRACON
11:07PM 40.8167 -74.1167 49° Northeast 162 186 1,100 -600 Descending New York TRACON
11:08PM 40.8333 -74.0833 57° Northeast 131 151 400 -720 Descending New York TRACON